Time;durP1;ratioP1;P1;durP2;ratioP2;P2;SDS_P1;SDS_P2;PMS_P1;PMS_P2;Temp;Humidity;BMP_temperature;BMP_pressure;BME280_temperature;BME280_humidity;BME280_pressure;Samples;Min_cycle;Max_cycle;Signal;HPM_P1;HPM_P2
2022/12/02 00:01:11;;;;;;;66.65;30.73;;;;;;;4.87;100.00;102771.25;4971840;28;20018;-61
2022/12/02 00:03:36;;;;;;;71.60;30.48;;;;;;;4.85;100.00;102768.63;4989666;28;20036;-60
2022/12/02 00:06:03;;;;;;;72.55;31.13;;;;;;;4.78;100.00;102767.63;4988529;28;20465;-61
2022/12/02 00:08:30;;;;;;;70.57;31.48;;;;;;;4.95;100.00;102771.44;4988361;28;20041;-59
2022/12/02 00:10:57;;;;;;;64.05;30.83;;;;;;;4.96;100.00;102773.22;4972324;28;20053;-61
2022/12/02 00:13:27;;;;;;;80.55;32.85;;;;;;;5.02;100.00;102762.84;4971963;28;20037;-62
2022/12/02 00:15:57;;;;;;;64.88;30.13;;;;;;;5.00;100.00;102762.81;4971945;28;20513;-62
2022/12/02 00:18:23;;;;;;;69.90;30.50;;;;;;;5.01;100.00;102751.56;4989230;28;20053;-62
2022/12/02 00:20:48;;;;;;;70.80;30.13;;;;;;;4.98;100.00;102758.44;4989321;28;20030;-61
2022/12/02 00:23:14;;;;;;;69.07;31.40;;;;;;;5.04;100.00;102758.56;4988863;28;20022;-58
2022/12/02 00:25:40;;;;;;;68.93;30.70;;;;;;;5.01;100.00;102756.78;4989279;28;20085;-61
2022/12/02 00:28:06;;;;;;;71.43;32.10;;;;;;;5.00;100.00;102754.13;4988738;28;20503;-60
2022/12/02 00:30:31;;;;;;;76.18;33.55;;;;;;;5.03;100.00;102754.19;4988505;28;20105;-61
2022/12/02 00:32:56;;;;;;;73.18;31.30;;;;;;;4.94;100.00;102760.13;4955499;28;20045;-59
2022/12/02 00:35:29;;;;;;;76.25;32.50;;;;;;;4.86;100.00;102752.13;4988939;28;20046;-61
2022/12/02 00:37:54;;;;;;;77.35;33.58;;;;;;;4.83;100.00;102757.28;4988542;28;20030;-62
2022/12/02 00:40:20;;;;;;;77.55;33.83;;;;;;;4.86;100.00;102756.44;4988634;28;20030;-61
2022/12/02 00:42:45;;;;;;;79.60;35.30;;;;;;;4.83;100.00;102754.66;4989771;28;20025;-65
2022/12/02 00:47:55;;;;;;;75.82;34.30;;;;;;;4.83;100.00;102751.16;4989370;28;20093;-59
2022/12/02 00:50:20;;;;;;;90.80;37.35;;;;;;;4.79;100.00;102752.84;4992047;28;20018;-62
2022/12/02 00:52:46;;;;;;;83.18;36.50;;;;;;;4.85;100.00;102744.25;4993031;28;20046;-62
2022/12/02 00:55:11;;;;;;;91.20;37.15;;;;;;;4.85;100.00;102742.50;4992923;28;20030;-64
2022/12/02 00:57:37;;;;;;;86.07;37.15;;;;;;;4.80;100.00;102747.66;4993271;28;20109;-60
2022/12/02 01:00:04;;;;;;;94.30;36.55;;;;;;;4.84;100.00;102742.50;4992980;28;20011;-62
2022/12/02 01:02:29;;;;;;;92.53;37.60;;;;;;;4.87;100.00;102742.53;4992896;28;20034;-64
2022/12/02 01:04:55;;;;;;;93.88;38.97;;;;;;;4.91;100.00;102736.53;4975478;28;20377;-61
2022/12/02 01:07:20;;;;;;;88.60;38.45;;;;;;;4.96;100.00;102729.66;4992437;28;20449;-60
2022/12/02 01:09:45;;;;;;;86.88;38.25;;;;;;;4.96;100.00;102734.88;4993008;28;20035;-62
2022/12/02 01:12:11;;;;;;;99.18;39.63;;;;;;;5.06;100.00;102735.97;4992379;28;20022;-62
2022/12/02 01:14:36;;;;;;;94.63;38.55;;;;;;;5.11;100.00;102733.41;4992630;28;20065;-62
2022/12/02 01:17:01;;;;;;;96.32;39.42;;;;;;;5.10;100.00;102734.28;4992706;28;20034;-61
2022/12/02 01:19:27;;;;;;;92.68;40.15;;;;;;;5.12;100.00;102729.97;4992203;28;20026;-62
2022/12/02 01:21:52;;;;;;;95.13;38.75;;;;;;;5.08;100.00;102730.78;4991764;28;20026;-62
2022/12/02 01:24:17;;;;;;;90.13;39.80;;;;;;;5.12;100.00;102728.22;4993045;28;20065;-63
2022/12/02 01:26:43;;;;;;;95.78;40.15;;;;;;;5.09;100.00;102727.31;4992619;28;20063;-61
2022/12/02 01:29:08;;;;;;;92.05;40.28;;;;;;;5.08;100.00;102730.78;4992435;28;20085;-62
2022/12/02 01:31:33;;;;;;;103.75;43.20;;;;;;;5.06;100.00;102728.13;4992515;28;20018;-63
2022/12/02 01:33:59;;;;;;;98.53;43.70;;;;;;;5.02;100.00;102721.94;4974989;28;20109;-63
2022/12/02 01:36:24;;;;;;;104.97;44.70;;;;;;;5.03;100.00;102734.16;4991886;28;20461;-63
2022/12/02 01:38:49;;;;;;;104.78;43.60;;;;;;;4.95;100.00;102730.53;4992786;28;20018;-62
2022/12/02 01:41:15;;;;;;;101.03;42.95;;;;;;;5.01;100.00;102725.41;4975601;28;20662;-62
2022/12/02 01:43:40;;;;;;;104.57;42.72;;;;;;;5.03;100.00;102735.91;4992674;28;20054;-61
2022/12/02 01:46:07;;;;;;;102.47;42.63;;;;;;;5.14;100.00;102736.09;4992016;28;20033;-62
2022/12/02 01:48:34;;;;;;;105.65;46.45;;;;;;;5.02;100.00;102735.00;4991857;28;20026;-62
2022/12/02 01:50:59;;;;;;;104.22;44.30;;;;;;;4.98;100.00;102734.91;4992107;28;20031;-63
2022/12/02 01:53:25;;;;;;;103.55;43.78;;;;;;;4.87;100.00;102743.41;4991198;28;20104;-64
2022/12/02 01:55:50;;;;;;;105.72;44.67;;;;;;;4.90;100.00;102737.38;4991760;28;20033;-60
2022/12/02 01:58:17;;;;;;;108.63;44.92;;;;;;;4.96;100.00;102728.81;4992168;28;20101;-61
2022/12/02 02:00:42;;;;;;;111.88;46.95;;;;;;;4.90;100.00;102735.66;4973744;28;20369;-59
2022/12/02 02:03:08;;;;;;;119.57;47.17;;;;;;;4.94;100.00;102739.22;4991519;28;20026;-63
2022/12/02 02:05:34;;;;;;;106.38;46.08;;;;;;;5.00;100.00;102738.44;4992210;28;20385;-62
2022/12/02 02:08:07;;;;;;;103.75;44.65;;;;;;;4.98;100.00;102725.34;4957833;28;20030;-62
2022/12/02 02:10:33;;;;;;;97.80;44.03;;;;;;;4.87;100.00;102732.97;4991587;28;20041;-61
2022/12/02 02:12:59;;;;;;;104.57;45.25;;;;;;;4.86;100.00;102730.31;4974491;28;20022;-61
2022/12/02 02:15:24;;;;;;;97.85;42.30;;;;;;;4.85;100.00;102725.97;4973700;28;20031;-62
2022/12/02 02:17:50;;;;;;;101.63;45.78;;;;;;;4.66;100.00;102729.06;4992058;28;20424;-62
2022/12/02 02:20:19;;;;;;;98.75;42.58;;;;;;;4.73;100.00;102730.06;4991813;28;20465;-62
2022/12/02 02:23:07;;;;;;;95.53;42.72;;;;;;;4.83;100.00;102723.31;4973469;28;20033;-63
2022/12/02 02:25:34;;;;;;;101.35;41.88;;;;;;;4.87;100.00;102722.53;4980435;28;20116;-65
2022/12/02 02:28:00;;;;;;;100.72;41.00;;;;;;;4.83;100.00;102710.25;4973663;28;20034;-62
2022/12/02 02:30:31;;;;;;;103.80;43.22;;;;;;;4.78;100.00;102707.53;4973143;28;20046;-61
2022/12/02 02:32:57;;;;;;;105.53;44.05;;;;;;;4.83;100.00;102701.53;4957388;28;20019;-61
2022/12/02 02:35:23;;;;;;;104.88;42.65;;;;;;;4.70;100.00;102713.47;4973434;28;20034;-61
2022/12/02 02:37:49;;;;;;;100.43;42.65;;;;;;;4.79;100.00;102714.53;4990711;28;20535;-61
2022/12/02 02:40:15;;;;;;;100.95;41.88;;;;;;;4.80;100.00;102708.47;4989093;28;20446;-61
2022/12/02 02:42:46;;;;;;;96.18;41.60;;;;;;;4.86;100.00;102705.09;4973359;28;20026;-63
2022/12/02 02:45:11;;;;;;;99.85;40.97;;;;;;;4.84;100.00;102700.69;4972999;28;20026;-63
2022/12/02 02:47:37;;;;;;;97.85;40.97;;;;;;;4.89;100.00;102696.44;4990646;28;20041;-63
2022/12/02 02:50:03;;;;;;;92.35;41.13;;;;;;;4.89;100.00;102699.94;4990301;28;20030;-61
2022/12/02 02:52:28;;;;;;;97.97;43.35;;;;;;;4.83;100.00;102698.91;4989908;28;20046;-61
2022/12/02 02:54:53;;;;;;;102.72;43.53;;;;;;;4.77;100.00;102695.34;4990530;28;20026;-61
2022/12/02 02:57:19;;;;;;;103.03;42.67;;;;;;;4.79;100.00;102688.41;4957427;28;20021;-62
2022/12/02 02:59:45;;;;;;;100.57;43.33;;;;;;;4.83;100.00;102691.06;4973115;28;20088;-61
2022/12/02 03:02:12;;;;;;;103.28;43.13;;;;;;;4.83;100.00;102684.13;4990196;28;20029;-63
2022/12/02 03:04:39;;;;;;;103.22;43.03;;;;;;;4.86;100.00;102683.31;4973043;28;20439;-59
2022/12/02 03:07:04;;;;;;;100.28;42.70;;;;;;;4.94;100.00;102679.13;4972433;28;20030;-63
2022/12/02 03:09:29;;;;;;;102.63;43.83;;;;;;;4.86;100.00;102683.31;4990500;28;20025;-65
2022/12/02 03:11:56;;;;;;;102.90;43.10;;;;;;;4.61;100.00;102677.59;4990433;28;20026;-62
2022/12/02 03:14:22;;;;;;;96.65;41.33;;;;;;;4.76;100.00;102677.03;4973163;28;20092;-61
2022/12/02 03:16:48;;;;;;;101.25;42.60;;;;;;;4.67;100.00;102667.28;4990635;28;20468;-61
2022/12/02 03:19:14;;;;;;;99.30;42.15;;;;;;;4.77;100.00;102669.22;4990194;28;20022;-59
2022/12/02 03:21:39;;;;;;;95.95;40.97;;;;;;;4.76;100.00;102669.19;4972193;28;20392;-60
2022/12/02 03:24:05;;;;;;;102.15;43.53;;;;;;;4.79;100.00;102672.72;4989952;28;20478;-60
2022/12/02 03:26:32;;;;;;;99.47;42.38;;;;;;;4.74;100.00;102671.78;4972287;28;20029;-62
2022/12/02 03:28:58;;;;;;;97.78;41.53;;;;;;;4.80;100.00;102671.91;4973076;28;20022;-62
2022/12/02 03:31:23;;;;;;;99.07;39.20;;;;;;;4.88;100.00;102671.16;4990340;28;20033;-62
2022/12/02 03:33:49;;;;;;;98.38;40.63;;;;;;;4.72;100.00;102670.84;4990560;28;20392;-61
2022/12/02 03:36:15;;;;;;;97.78;39.33;;;;;;;4.70;100.00;102664.72;4972267;28;20128;-61
2022/12/02 03:38:41;;;;;;;106.38;41.50;;;;;;;4.86;100.00;102658.06;4973059;28;20030;-61
2022/12/02 03:41:08;;;;;;;89.60;37.42;;;;;;;4.92;100.00;102647.75;4972684;28;20022;-61
2022/12/02 03:43:33;;;;;;;93.53;39.50;;;;;;;4.89;100.00;102646.78;4973136;28;20054;-62
2022/12/02 03:45:59;;;;;;;96.57;39.78;;;;;;;4.88;100.00;102648.50;4972925;28;20034;-61
2022/12/02 03:48:24;;;;;;;98.18;40.55;;;;;;;4.89;100.00;102659.84;4972495;28;20034;-61
2022/12/02 03:50:52;;;;;;;97.55;41.40;;;;;;;4.82;100.00;102655.38;4988415;28;20026;-61
2022/12/02 03:53:18;;;;;;;102.20;39.80;;;;;;;4.79;100.00;102650.97;4972265;28;20070;-62
2022/12/02 03:55:43;;;;;;;93.30;39.38;;;;;;;4.74;100.00;102656.09;4972468;28;20030;-61
2022/12/02 03:58:09;;;;;;;96.20;38.42;;;;;;;4.79;100.00;102662.28;4989332;28;20027;-61
2022/12/02 04:00:35;;;;;;;95.25;37.88;;;;;;;4.94;100.00;102650.38;4989765;28;20072;-61
2022/12/02 04:03:00;;;;;;;96.15;39.25;;;;;;;4.90;100.00;102654.66;4989829;28;20029;-61
2022/12/02 04:05:26;;;;;;;103.15;38.97;;;;;;;4.74;100.00;102653.50;4989574;28;20030;-61
2022/12/02 04:07:51;;;;;;;97.72;39.22;;;;;;;4.76;100.00;102651.78;4988986;28;20038;-62
2022/12/02 04:10:17;;;;;;;99.20;40.70;;;;;;;4.68;100.00;102653.38;4989140;28;20379;-60
2022/12/02 04:12:42;;;;;;;101.60;40.25;;;;;;;4.73;100.00;102651.72;4972269;28;20504;-61
2022/12/02 04:15:09;;;;;;;98.28;38.85;;;;;;;4.79;100.00;102651.84;4989419;28;20045;-62
2022/12/02 04:17:34;;;;;;;97.53;38.75;;;;;;;4.84;100.00;102653.69;4989309;28;20027;-62
2022/12/02 04:20:00;;;;;;;99.22;38.70;;;;;;;4.76;100.00;102651.78;4989199;28;20428;-61
2022/12/02 04:22:25;;;;;;;94.85;37.70;;;;;;;4.83;100.00;102654.50;4971406;28;20388;-60
2022/12/02 04:24:50;;;;;;;99.68;39.25;;;;;;;4.73;100.00;102649.09;4992938;28;20424;-61
2022/12/02 04:27:16;;;;;;;99.10;39.53;;;;;;;4.80;100.00;102642.28;4995895;28;20476;-63
2022/12/02 04:29:41;;;;;;;93.00;37.50;;;;;;;4.80;100.00;102643.16;4995892;28;20883;-62
2022/12/02 04:32:07;;;;;;;94.82;38.50;;;;;;;4.77;100.00;102643.09;4995762;28;20520;-61
2022/12/02 04:34:33;;;;;;;95.78;37.38;;;;;;;4.90;100.00;102632.88;4995820;28;20026;-61
2022/12/02 04:36:58;;;;;;;95.05;37.85;;;;;;;4.88;100.00;102629.38;4994996;28;20107;-63
2022/12/02 04:39:23;;;;;;;87.97;35.08;;;;;;;4.91;100.00;102630.28;4995320;28;20029;-62
2022/12/02 04:41:49;;;;;;;89.20;35.85;;;;;;;4.98;100.00;102627.78;4995439;28;20038;-62
2022/12/02 04:44:14;;;;;;;88.35;36.45;;;;;;;4.84;100.00;102619.72;4995166;28;20037;-62
2022/12/02 04:46:39;;;;;;;89.80;35.85;;;;;;;4.67;100.00;102626.34;4995512;28;20022;-62
2022/12/02 04:49:05;;;;;;;90.53;38.95;;;;;;;4.66;100.00;102621.09;4994968;28;20492;-61
2022/12/02 04:51:31;;;;;;;89.68;35.22;;;;;;;4.91;100.00;102618.97;4994586;28;20027;-62
2022/12/02 04:53:57;;;;;;;92.72;37.58;;;;;;;4.88;100.00;102616.31;4994951;28;20092;-61
2022/12/02 04:56:22;;;;;;;99.18;36.70;;;;;;;4.93;100.00;102606.81;4977320;28;20420;-61
2022/12/02 04:58:47;;;;;;;92.82;35.58;;;;;;;4.97;100.00;102612.97;4994959;28;20045;-61
2022/12/02 05:01:13;;;;;;;96.20;37.25;;;;;;;4.92;100.00;102612.91;4995370;28;20121;-58
2022/12/02 05:03:38;;;;;;;95.22;37.63;;;;;;;4.84;100.00;102617.97;4995250;28;20066;-61
2022/12/02 05:06:03;;;;;;;88.50;35.45;;;;;;;4.91;100.00;102614.63;4994275;28;20039;-62
2022/12/02 05:08:29;;;;;;;93.93;36.40;;;;;;;4.94;100.00;102605.97;4995366;28;20026;-61
2022/12/02 05:10:54;;;;;;;92.88;36.75;;;;;;;4.96;100.00;102601.63;4995394;28;20530;-62
2022/12/02 05:13:19;;;;;;;88.18;37.80;;;;;;;4.92;100.00;102584.16;4978109;28;20028;-62
2022/12/02 05:15:45;;;;;;;90.97;37.05;;;;;;;4.94;100.00;102598.13;4992177;28;20026;-63
2022/12/02 05:18:10;;;;;;;92.18;36.55;;;;;;;4.87;100.00;102599.75;4987757;28;20033;-62
2022/12/02 05:20:35;;;;;;;89.07;36.17;;;;;;;4.80;100.00;102604.00;4994874;28;20034;-63
2022/12/02 05:23:01;;;;;;;89.65;36.40;;;;;;;4.71;100.00;102601.19;4977054;28;20033;-62
2022/12/02 05:25:26;;;;;;;95.90;36.22;;;;;;;4.76;100.00;102594.31;4995188;28;20031;-63
2022/12/02 05:27:52;;;;;;;89.45;36.30;;;;;;;4.84;100.00;102602.28;4995056;28;20076;-62
2022/12/02 05:30:17;;;;;;;91.47;38.38;;;;;;;4.80;100.00;102601.38;4994820;28;20022;-63
2022/12/02 05:32:42;;;;;;;93.43;37.03;;;;;;;4.84;100.00;102606.66;4994126;28;20428;-62
2022/12/02 05:35:08;;;;;;;97.32;39.13;;;;;;;4.85;100.00;102600.56;4994690;28;20050;-63
2022/12/02 05:37:33;;;;;;;93.63;38.13;;;;;;;4.83;100.00;102605.78;4991245;28;20113;-62
2022/12/02 05:39:59;;;;;;;94.13;37.35;;;;;;;4.71;100.00;102601.19;4991571;28;20492;-62
2022/12/02 05:42:24;;;;;;;94.43;38.25;;;;;;;4.83;100.00;102603.16;4991639;28;20469;-61
2022/12/02 05:44:49;;;;;;;99.90;38.05;;;;;;;4.78;100.00;102602.19;4991187;28;20065;-64
2022/12/02 05:47:17;;;;;;;95.18;36.92;;;;;;;4.83;100.00;102602.25;4991128;28;20094;-62
2022/12/02 05:49:43;;;;;;;89.22;37.40;;;;;;;4.75;100.00;102600.41;4990990;28;20464;-62
2022/12/02 05:52:26;;;;;;;96.45;38.42;;;;;;;4.77;100.00;102596.09;4990360;28;20062;-61
2022/12/02 05:54:59;;;;;;;92.65;37.78;;;;;;;4.79;100.00;102588.28;4990947;28;20074;-61
2022/12/02 05:57:28;;;;;;;92.30;37.05;;;;;;;4.88;100.00;102577.13;4991267;28;20038;-61
2022/12/02 06:00:10;;;;;;;84.38;33.40;;;;;;;4.54;100.00;102588.69;4979538;28;20032;-62
2022/12/02 06:02:38;;;;;;;85.82;34.15;;;;;;;4.66;100.00;102600.22;4972413;28;20088;-61
2022/12/02 06:05:19;;;;;;;81.63;33.38;;;;;;;4.66;100.00;102608.03;4990596;28;20018;-62
2022/12/02 06:07:45;;;;;;;78.30;33.05;;;;;;;4.46;100.00;102600.72;4989366;28;20039;-61
2022/12/02 06:10:22;;;;;;;73.57;30.85;;;;;;;4.61;100.00;102602.72;4989884;28;20525;-61
2022/12/02 06:12:48;;;;;;;77.40;30.50;;;;;;;4.55;100.00;102600.03;4991236;28;20034;-61
2022/12/02 06:15:14;;;;;;;73.15;30.23;;;;;;;4.49;100.00;102602.50;4987885;28;20490;-61
2022/12/02 06:17:39;;;;;;;76.10;30.88;;;;;;;4.48;100.00;102603.38;4989011;28;20092;-61
2022/12/02 06:20:05;;;;;;;76.97;30.88;;;;;;;4.23;100.00;102606.34;4990703;28;20022;-62
2022/12/02 06:22:32;;;;;;;74.57;29.70;;;;;;;4.43;100.00;102598.91;4989111;28;20049;-60
2022/12/02 06:25:00;;;;;;;67.40;28.88;;;;;;;4.39;100.00;102604.91;4991223;28;20033;-64
2022/12/02 06:27:26;;;;;;;68.55;29.10;;;;;;;4.46;100.00;102605.94;4972921;28;20125;-63
2022/12/02 06:29:56;;;;;;;73.65;30.08;;;;;;;4.45;100.00;102604.16;4990933;28;20118;-62
2022/12/02 06:32:22;;;;;;;72.03;30.30;;;;;;;4.35;100.00;102603.09;4990681;28;20026;-62
2022/12/02 06:34:50;;;;;;;79.90;30.00;;;;;;;4.17;100.00;102600.97;4973715;28;20022;-61
2022/12/02 06:37:28;;;;;;;81.50;31.33;;;;;;;4.28;100.00;102601.22;4990260;28;20026;-63
2022/12/02 06:39:56;;;;;;;76.70;29.70;;;;;;;4.24;100.00;102597.66;4990843;28;20058;-61
2022/12/02 06:42:27;;;;;;;73.30;28.25;;;;;;;4.25;100.00;102594.19;4990660;28;20026;-60
2022/12/02 06:45:04;;;;;;;77.72;28.48;;;;;;;4.09;100.00;102605.16;4991111;28;20065;-63
2022/12/02 06:47:35;;;;;;;75.53;28.35;;;;;;;4.28;100.00;102607.31;4989688;28;20112;-62
2022/12/02 06:50:03;;;;;;;72.70;28.30;;;;;;;4.31;100.00;102603.91;4990950;28;20088;-58
2022/12/02 06:52:32;;;;;;;77.18;27.83;;;;;;;4.25;100.00;102609.84;4989824;28;20415;-63
2022/12/02 06:54:58;;;;;;;78.72;28.70;;;;;;;4.16;100.00;102613.13;4973367;28;20118;-63
2022/12/02 06:57:23;;;;;;;69.72;27.38;;;;;;;4.19;100.00;102612.34;4990066;28;20046;-62
2022/12/02 06:59:50;;;;;;;79.07;29.30;;;;;;;4.12;100.00;102610.47;4972967;28;20115;-62
2022/12/02 07:04:50;;;;;;;66.85;26.48;;;;;;;4.00;100.00;102614.53;3541709;28;20446;-62
2022/12/02 07:07:23;;;;;;;76.03;28.83;;;;;;;4.00;100.00;102609.31;5009337;28;20084;-61
2022/12/02 07:10:17;;;;;;;75.50;28.67;;;;;;;3.93;100.00;102612.66;4991632;28;20030;-60
2022/12/02 07:12:44;;;;;;;71.88;25.63;;;;;;;4.12;100.00;102610.47;4992131;28;20026;-61
2022/12/02 07:15:30;;;;;;;67.93;26.95;;;;;;;3.96;100.00;102615.31;5009359;28;20026;-62
2022/12/02 07:17:57;;;;;;;67.32;25.98;;;;;;;3.82;100.00;102616.75;4991746;28;20033;-62
2022/12/02 07:20:32;;;;;;;70.68;27.23;;;;;;;3.67;100.00;102618.13;5008703;28;20488;-62
2022/12/02 07:22:59;;;;;;;67.30;26.02;;;;;;;3.59;100.00;102615.34;5006612;28;20023;-61
2022/12/02 07:25:37;;;;;;;63.85;24.90;;;;;;;3.72;100.00;102624.34;5009202;28;20037;-59
2022/12/02 07:28:31;;;;;;;67.05;26.00;;;;;;;3.74;100.00;102627.00;5008284;28;20058;-61
2022/12/02 07:31:21;;;;;;;73.85;27.58;;;;;;;3.73;100.00;102633.91;4990767;28;20025;-61
2022/12/02 07:33:47;;;;;;;74.07;27.20;;;;;;;3.71;100.00;102632.13;4995932;28;20077;-60
2022/12/02 07:36:13;;;;;;;67.35;25.10;;;;;;;3.84;100.00;102635.91;5007660;28;20025;-60
2022/12/02 07:38:38;;;;;;;64.43;25.50;;;;;;;3.59;100.00;102640.53;5007990;28;20104;-61
2022/12/02 07:41:04;;;;;;;70.10;25.30;;;;;;;3.50;100.00;102636.88;5008532;28;20010;-61
2022/12/02 07:43:30;;;;;;;68.97;23.98;;;;;;;3.53;100.00;102636.91;5007875;28;20121;-61
2022/12/02 07:45:55;;;;;;;56.55;22.27;;;;;;;3.45;100.00;102641.06;5008332;28;20044;-60
2022/12/02 07:48:21;;;;;;;66.15;23.95;;;;;;;3.36;100.00;102638.22;5007897;28;20543;-61
2022/12/02 07:50:46;;;;;;;56.10;21.95;;;;;;;3.49;100.00;102639.44;5007745;28;20488;-62
2022/12/02 07:53:11;;;;;;;52.70;21.83;;;;;;;3.45;100.00;102635.88;5008743;28;20046;-59
2022/12/02 07:55:37;;;;;;;61.20;22.85;;;;;;;3.45;100.00;102641.06;5008436;28;20037;-59
2022/12/02 07:58:02;;;;;;;58.55;23.70;;;;;;;3.52;100.00;102645.59;5008853;28;20495;-61
2022/12/02 08:00:27;;;;;;;55.88;21.70;;;;;;;3.43;100.00;102642.75;5008404;28;20444;-59
2022/12/02 08:02:54;;;;;;;54.90;21.45;;;;;;;3.43;100.00;102637.53;5009225;28;20030;-61
2022/12/02 08:05:20;;;;;;;58.28;22.05;;;;;;;3.42;100.00;102638.38;5007684;28;20037;-59
2022/12/02 08:07:45;;;;;;;50.40;20.58;;;;;;;3.54;100.00;102643.91;5008696;28;20033;-60
2022/12/02 08:10:11;;;;;;;52.65;21.05;;;;;;;3.57;100.00;102634.38;5008812;28;20033;-60
2022/12/02 08:12:37;;;;;;;50.55;20.00;;;;;;;3.61;100.00;102644.94;4990514;28;20523;-61
2022/12/02 08:15:04;;;;;;;49.72;19.25;;;;;;;3.68;100.00;102638.16;5008486;28;20030;-61
2022/12/02 08:17:29;;;;;;;53.22;22.05;;;;;;;3.73;100.00;102648.69;5008441;28;20061;-62
2022/12/02 08:19:54;;;;;;;50.83;20.30;;;;;;;3.79;100.00;102644.50;4990831;28;20285;-61
2022/12/02 08:22:20;;;;;;;46.10;20.35;;;;;;;3.67;100.00;102641.59;5008091;28;20428;-63
2022/12/02 08:24:45;;;;;;;57.30;20.75;;;;;;;3.78;100.00;102647.97;5008737;28;20560;-62
2022/12/02 08:27:10;;;;;;;45.42;19.85;;;;;;;3.87;100.00;102646.41;5008304;28;20033;-60
2022/12/02 08:29:36;;;;;;;55.67;20.70;;;;;;;3.85;100.00;102642.91;5007670;28;20293;-60
2022/12/02 08:32:02;;;;;;;48.13;20.58;;;;;;;3.81;100.00;102648.84;5009371;28;20034;-62
2022/12/02 08:34:27;;;;;;;43.88;18.35;;;;;;;3.84;100.00;102647.22;5007162;28;20014;-61
2022/12/02 08:36:52;;;;;;;46.10;19.27;;;;;;;3.76;100.00;102638.31;5008439;28;20467;-61
2022/12/02 08:39:18;;;;;;;48.05;19.25;;;;;;;3.83;100.00;102644.56;5008214;28;20376;-62
2022/12/02 08:41:43;;;;;;;48.17;20.02;;;;;;;3.92;100.00;102645.66;5007353;28;20028;-62
2022/12/02 08:44:08;;;;;;;43.10;18.17;;;;;;;3.78;100.00;102637.53;5007921;28;20097;-59
2022/12/02 08:46:35;;;;;;;39.25;18.35;;;;;;;3.73;100.00;102646.97;5007869;28;20055;-60
2022/12/02 08:49:00;;;;;;;41.90;19.58;;;;;;;3.79;100.00;102649.72;5008001;28;20026;-64
2022/12/02 08:51:26;;;;;;;38.38;18.00;;;;;;;3.91;100.00;102648.22;5010067;28;20025;-60
2022/12/02 08:53:52;;;;;;;42.55;18.13;;;;;;;3.89;100.00;102644.72;5028172;28;20068;-61
2022/12/02 08:56:17;;;;;;;47.70;18.45;;;;;;;3.86;100.00;102644.66;5026910;28;20067;-61
2022/12/02 08:58:42;;;;;;;40.67;18.17;;;;;;;3.99;100.00;102644.09;5028415;28;20057;-61
2022/12/02 09:01:08;;;;;;;40.55;18.60;;;;;;;3.92;100.00;102645.66;5019201;28;20026;-59
2022/12/02 09:03:33;;;;;;;41.00;18.52;;;;;;;3.92;100.00;102643.06;5008075;28;20464;-65
2022/12/02 09:05:59;;;;;;;39.63;17.63;;;;;;;3.82;100.00;102648.03;5011846;28;20092;-60
2022/12/02 09:08:24;;;;;;;39.13;18.25;;;;;;;4.00;100.00;102648.44;5022389;28;20037;-61
2022/12/02 09:10:49;;;;;;;42.10;19.17;;;;;;;3.95;100.00;102644.88;5028937;28;20025;-61
2022/12/02 09:13:15;;;;;;;44.47;17.80;;;;;;;4.06;100.00;102647.69;4996214;28;20022;-60
2022/12/02 09:15:40;;;;;;;38.63;17.33;;;;;;;4.03;100.00;102645.91;5010532;28;20022;-60
2022/12/02 09:18:05;;;;;;;32.13;16.45;;;;;;;4.16;100.00;102648.81;5010915;28;20604;-59
2022/12/02 09:20:31;;;;;;;38.42;18.20;;;;;;;4.07;100.00;102649.50;5010772;28;20380;-59
2022/12/02 09:22:56;;;;;;;42.20;17.67;;;;;;;3.90;100.00;102636.03;5022858;28;20021;-61
2022/12/02 09:25:22;;;;;;;37.95;17.27;;;;;;;4.11;100.00;102645.19;5017541;28;20388;-60
2022/12/02 09:27:47;;;;;;;44.72;18.13;;;;;;;3.99;100.00;102643.19;5014484;28;20573;-60
2022/12/02 09:30:13;;;;;;;41.00;17.92;;;;;;;4.00;100.00;102650.19;5019435;28;20395;-59
2022/12/02 09:32:39;;;;;;;34.08;17.35;;;;;;;4.16;100.00;102656.63;5010783;28;20018;-59
2022/12/02 09:35:04;;;;;;;52.95;20.77;;;;;;;4.07;100.00;102645.97;4992231;28;20026;-61
2022/12/02 09:37:30;;;;;;;39.22;17.42;;;;;;;4.09;100.00;102649.53;5010899;28;20037;-61
2022/12/02 09:39:55;;;;;;;42.58;18.42;;;;;;;4.33;100.00;102654.38;5010332;28;20108;-59
2022/12/02 09:42:21;;;;;;;38.55;16.85;;;;;;;4.07;100.00;102653.81;5009768;28;20033;-59
2022/12/02 09:44:47;;;;;;;32.63;15.68;;;;;;;4.08;100.00;102646.03;5010246;28;20037;-60
2022/12/02 09:47:13;;;;;;;39.17;17.60;;;;;;;4.11;100.00;102651.31;4993171;28;20033;-60
2022/12/02 09:49:39;;;;;;;34.20;16.92;;;;;;;4.17;100.00;102653.16;5009429;28;20041;-61
2022/12/02 09:52:06;;;;;;;33.50;16.13;;;;;;;3.93;100.00;102649.16;4992170;28;20476;-59
2022/12/02 09:54:31;;;;;;;31.48;15.45;;;;;;;3.83;100.00;102641.97;5008860;28;20101;-61
2022/12/02 09:56:57;;;;;;;30.58;14.75;;;;;;;3.84;100.00;102646.31;5008868;28;20061;-60
2022/12/02 09:59:23;;;;;;;29.60;15.30;;;;;;;3.79;100.00;102634.06;5009888;28;20068;-60
2022/12/02 10:01:48;;;;;;;37.85;16.98;;;;;;;3.70;100.00;102627.78;5009761;28;21128;-61
2022/12/02 10:04:19;;;;;;;36.70;17.45;;;;;;;3.93;100.00;102633.50;5008722;28;20464;-60
2022/12/02 10:06:45;;;;;;;34.80;16.45;;;;;;;3.92;100.00;102635.22;5008803;28;20026;-60
2022/12/02 10:09:27;;;;;;;31.73;15.90;;;;;;;4.04;100.00;102637.22;5009327;28;20521;-61
2022/12/02 10:11:52;;;;;;;30.08;14.00;;;;;;;4.20;100.00;102634.97;4991863;28;20034;-61
2022/12/02 10:14:17;;;;;;;33.47;16.40;;;;;;;4.15;100.00;102632.25;5008988;28;20494;-61
2022/12/02 10:16:43;;;;;;;31.33;15.40;;;;;;;4.27;100.00;102630.75;5009596;28;20080;-58
2022/12/02 10:19:14;;;;;;;32.20;15.77;;;;;;;4.46;100.00;102615.50;5008156;28;20473;-61
2022/12/02 10:21:39;;;;;;;31.60;14.77;;;;;;;4.47;100.00;102617.25;4990491;28;20022;-60
2022/12/02 10:24:09;;;;;;;33.03;14.50;;;;;;;4.58;100.00;102622.69;5008684;28;20413;-60
2022/12/02 10:26:44;;;;;;;;;;;;;;;4.75;100.00;102610.84;4992503;28;20018;-60
2022/12/02 10:29:14;;;;;;;30.27;14.52;;;;;;;4.39;100.00;102614.47;5009258;28;19913;-62
2022/12/02 10:31:58;;;;;;;31.08;14.68;;;;;;;4.34;100.00;102613.50;4990552;28;20362;-62
2022/12/02 10:34:25;;;;;;;31.73;15.23;;;;;;;4.17;100.00;102611.41;5008231;28;20104;-60
2022/12/02 10:36:51;;;;;;;30.70;14.35;;;;;;;3.90;100.00;102605.63;5009022;28;20048;-61
2022/12/02 10:39:33;;;;;;;29.30;15.02;;;;;;;3.85;100.00;102588.13;5008104;28;20034;-60
2022/12/02 10:42:06;;;;;;;30.50;14.27;;;;;;;3.99;100.00;102584.09;5009226;28;20026;-61
2022/12/02 10:44:34;;;;;;;27.08;13.90;;;;;;;4.19;100.00;102581.03;5009705;28;20030;-60
2022/12/02 10:47:22;;;;;;;30.52;14.50;;;;;;;4.30;100.00;102583.84;5009475;28;20363;-61
2022/12/02 10:49:53;;;;;;;30.30;14.33;;;;;;;4.41;100.00;102591.91;5009554;28;20041;-59
2022/12/02 10:52:28;;;;;;;33.45;14.77;;;;;;;4.87;100.00;102588.41;5009671;28;20045;-62
2022/12/02 10:54:55;;;;;;;29.08;13.57;;;;;;;4.76;100.00;102588.22;5020309;28;20029;-61
2022/12/02 10:57:26;;;;;;;25.92;13.38;;;;;;;4.66;100.00;102587.16;4999577;28;20468;-60
2022/12/02 10:59:53;;;;;;;30.63;14.43;;;;;;;5.03;100.00;102584.34;5016592;28;20017;-59
2022/12/02 11:02:21;;;;;;;28.70;13.90;;;;;;;4.93;100.00;102571.13;5006969;28;20076;-61
2022/12/02 11:04:47;;;;;;;30.00;13.90;;;;;;;5.05;100.00;102573.06;5007772;28;20041;-60
2022/12/02 11:07:16;;;;;;;29.60;13.25;;;;;;;4.76;100.00;102583.88;5008879;28;20018;-61
2022/12/02 11:09:46;;;;;;;31.52;15.30;;;;;;;4.38;100.00;102574.47;5008591;28;20033;-62
2022/12/02 11:12:37;;;;;;;27.00;14.35;;;;;;;4.59;100.00;102574.84;5009073;28;20025;-60
2022/12/02 11:15:31;;;;;;;33.78;15.00;;;;;;;4.85;100.00;102570.09;4990890;28;20030;-60